sensor_id;sensor_type;location;lat;lon;timestamp;temperature;humidity
18868;DHT22;9563;49.240;9.088;2023-04-30T05:02:14;11.30;99.90
18868;DHT22;9563;49.240;9.088;2023-04-30T05:04:41;11.30;99.90
18868;DHT22;9563;49.240;9.088;2023-04-30T05:07:08;11.30;99.90
18868;DHT22;9563;49.240;9.088;2023-04-30T05:09:35;11.40;99.90
18868;DHT22;9563;49.240;9.088;2023-04-30T05:12:02;11.40;99.90
18868;DHT22;9563;49.240;9.088;2023-04-30T05:14:29;11.40;99.90
18868;DHT22;9563;49.240;9.088;2023-04-30T05:16:56;11.40;99.90
18868;DHT22;9563;49.240;9.088;2023-04-30T05:19:24;11.50;99.90
18868;DHT22;9563;49.240;9.088;2023-04-30T05:21:51;11.60;99.90
18868;DHT22;9563;49.240;9.088;2023-04-30T05:24:18;11.60;99.90
18868;DHT22;9563;49.240;9.088;2023-04-30T05:26:45;11.70;99.90
18868;DHT22;9563;49.240;9.088;2023-04-30T05:29:11;11.70;99.90
18868;DHT22;9563;49.240;9.088;2023-04-30T05:31:38;11.70;99.90
18868;DHT22;9563;49.240;9.088;2023-04-30T05:34:06;11.80;99.90
18868;DHT22;9563;49.240;9.088;2023-04-30T05:36:34;11.90;99.90
18868;DHT22;9563;49.240;9.088;2023-04-30T05:39:01;11.90;99.90
18868;DHT22;9563;49.240;9.088;2023-04-30T05:41:28;12.00;99.90
18868;DHT22;9563;49.240;9.088;2023-04-30T05:43:55;12.00;99.90
18868;DHT22;9563;49.240;9.088;2023-04-30T05:46:22;12.00;99.90
18868;DHT22;9563;49.240;9.088;2023-04-30T05:48:49;12.10;99.90
18868;DHT22;9563;49.240;9.088;2023-04-30T05:51:16;12.10;99.90
18868;DHT22;9563;49.240;9.088;2023-04-30T05:53:44;12.20;99.90
18868;DHT22;9563;49.240;9.088;2023-04-30T05:56:11;12.20;99.90
18868;DHT22;9563;49.240;9.088;2023-04-30T05:58:38;12.20;99.90
18868;DHT22;9563;49.240;9.088;2023-04-30T06:01:05;12.30;99.90
18868;DHT22;9563;49.240;9.088;2023-04-30T06:03:35;12.40;99.90
18868;DHT22;9563;49.240;9.088;2023-04-30T06:06:02;12.40;99.90
18868;DHT22;9563;49.240;9.088;2023-04-30T06:08:29;12.50;99.90
18868;DHT22;9563;49.240;9.088;2023-04-30T06:10:57;12.70;99.90
18868;DHT22;9563;49.240;9.088;2023-04-30T06:13:25;12.70;99.90
18868;DHT22;9563;49.240;9.088;2023-04-30T06:15:51;12.70;99.90
18868;DHT22;9563;49.240;9.088;2023-04-30T06:18:18;12.80;99.90
18868;DHT22;9563;49.240;9.088;2023-04-30T06:20:45;12.90;99.90
18868;DHT22;9563;49.240;9.088;2023-04-30T06:23:12;13.00;99.90
18868;DHT22;9563;49.240;9.088;2023-04-30T06:25:39;13.10;99.90
18868;DHT22;9563;49.240;9.088;2023-04-30T06:28:07;13.20;99.90
18868;DHT22;9563;49.240;9.088;2023-04-30T06:30:35;13.30;99.90
18868;DHT22;9563;49.240;9.088;2023-04-30T06:33:02;13.40;99.90
18868;DHT22;9563;49.240;9.088;2023-04-30T06:35:29;13.50;99.90
18868;DHT22;9563;49.240;9.088;2023-04-30T06:37:55;13.50;99.90
18868;DHT22;9563;49.240;9.088;2023-04-30T06:40:22;13.60;99.90
18868;DHT22;9563;49.240;9.088;2023-04-30T06:42:49;13.70;99.90
18868;DHT22;9563;49.240;9.088;2023-04-30T06:45:18;13.70;99.90
18868;DHT22;9563;49.240;9.088;2023-04-30T06:47:45;13.70;99.90
18868;DHT22;9563;49.240;9.088;2023-04-30T06:50:12;13.70;99.90
18868;DHT22;9563;49.240;9.088;2023-04-30T06:52:40;13.70;99.90
18868;DHT22;9563;49.240;9.088;2023-04-30T06:55:07;13.80;99.90
18868;DHT22;9563;49.240;9.088;2023-04-30T06:57:34;13.90;99.90
18868;DHT22;9563;49.240;9.088;2023-04-30T07:00:03;14.00;99.90
18868;DHT22;9563;49.240;9.088;2023-04-30T07:02:31;14.10;99.90
18868;DHT22;9563;49.240;9.088;2023-04-30T07:04:58;14.20;99.90
18868;DHT22;9563;49.240;9.088;2023-04-30T07:07:25;14.30;99.90
18868;DHT22;9563;49.240;9.088;2023-04-30T07:09:52;14.20;99.90
18868;DHT22;9563;49.240;9.088;2023-04-30T07:12:19;14.00;99.90
18868;DHT22;9563;49.240;9.088;2023-04-30T07:14:46;13.90;99.90
18868;DHT22;9563;49.240;9.088;2023-04-30T07:17:13;13.90;99.90
18868;DHT22;9563;49.240;9.088;2023-04-30T07:19:42;14.10;99.90
18868;DHT22;9563;49.240;9.088;2023-04-30T07:22:09;14.30;99.90
18868;DHT22;9563;49.240;9.088;2023-04-30T07:24:35;14.70;99.90
18868;DHT22;9563;49.240;9.088;2023-04-30T07:27:02;14.90;99.90
18868;DHT22;9563;49.240;9.088;2023-04-30T07:29:31;15.20;99.90
18868;DHT22;9563;49.240;9.088;2023-04-30T07:31:58;15.40;99.90
18868;DHT22;9563;49.240;9.088;2023-04-30T07:34:25;15.60;99.90
18868;DHT22;9563;49.240;9.088;2023-04-30T07:36:53;15.80;99.90
18868;DHT22;9563;49.240;9.088;2023-04-30T07:39:20;16.00;99.90
18868;DHT22;9563;49.240;9.088;2023-04-30T07:41:47;16.20;99.90
18868;DHT22;9563;49.240;9.088;2023-04-30T07:44:14;16.50;99.90
18868;DHT22;9563;49.240;9.088;2023-04-30T07:46:41;16.50;99.90
18868;DHT22;9563;49.240;9.088;2023-04-30T07:49:08;16.50;99.90
18868;DHT22;9563;49.240;9.088;2023-04-30T07:51:34;16.90;99.90
18868;DHT22;9563;49.240;9.088;2023-04-30T07:54:03;17.20;99.90
18868;DHT22;9563;49.240;9.088;2023-04-30T07:56:30;17.50;99.90
18868;DHT22;9563;49.240;9.088;2023-04-30T07:58:57;17.60;99.90
18868;DHT22;9563;49.240;9.088;2023-04-30T08:01:24;17.70;99.90
18868;DHT22;9563;49.240;9.088;2023-04-30T08:03:51;17.60;99.90
18868;DHT22;9563;49.240;9.088;2023-04-30T08:06:18;17.70;99.90
18868;DHT22;9563;49.240;9.088;2023-04-30T08:08:45;17.90;99.90
18868;DHT22;9563;49.240;9.088;2023-04-30T08:11:13;18.20;99.90
18868;DHT22;9563;49.240;9.088;2023-04-30T08:13:40;18.50;99.90
18868;DHT22;9563;49.240;9.088;2023-04-30T08:16:07;18.50;99.90
18868;DHT22;9563;49.240;9.088;2023-04-30T08:18:34;18.40;99.90
18868;DHT22;9563;49.240;9.088;2023-04-30T08:21:03;18.50;99.90
18868;DHT22;9563;49.240;9.088;2023-04-30T08:23:31;18.50;99.90
18868;DHT22;9563;49.240;9.088;2023-04-30T08:25:58;18.60;99.90
18868;DHT22;9563;49.240;9.088;2023-04-30T08:28:26;18.80;99.90
18868;DHT22;9563;49.240;9.088;2023-04-30T08:30:53;18.40;99.90
18868;DHT22;9563;49.240;9.088;2023-04-30T08:33:20;18.20;99.90
18868;DHT22;9563;49.240;9.088;2023-04-30T08:35:47;18.10;99.90
18868;DHT22;9563;49.240;9.088;2023-04-30T08:38:14;18.10;99.90
18868;DHT22;9563;49.240;9.088;2023-04-30T08:40:41;18.10;99.90
18868;DHT22;9563;49.240;9.088;2023-04-30T08:43:13;18.20;99.90
18868;DHT22;9563;49.240;9.088;2023-04-30T08:45:42;18.30;99.90
18868;DHT22;9563;49.240;9.088;2023-04-30T08:48:10;18.50;99.90
18868;DHT22;9563;49.240;9.088;2023-04-30T08:50:38;18.30;99.90
18868;DHT22;9563;49.240;9.088;2023-04-30T08:53:07;18.70;99.90
18868;DHT22;9563;49.240;9.088;2023-04-30T08:55:33;18.60;99.90
18868;DHT22;9563;49.240;9.088;2023-04-30T08:58:01;18.50;99.90
18868;DHT22;9563;49.240;9.088;2023-04-30T09:00:31;18.60;99.90
18868;DHT22;9563;49.240;9.088;2023-04-30T09:03:01;18.90;99.90
18868;DHT22;9563;49.240;9.088;2023-04-30T09:05:28;19.20;99.90
18868;DHT22;9563;49.240;9.088;2023-04-30T09:07:55;19.00;99.90
18868;DHT22;9563;49.240;9.088;2023-04-30T09:10:22;18.70;99.90
18868;DHT22;9563;49.240;9.088;2023-04-30T09:13:00;18.70;99.90
18868;DHT22;9563;49.240;9.088;2023-04-30T09:15:27;18.40;99.90
18868;DHT22;9563;49.240;9.088;2023-04-30T09:18:10;18.10;99.90
18868;DHT22;9563;49.240;9.088;2023-04-30T09:20:38;18.20;99.90
18868;DHT22;9563;49.240;9.088;2023-04-30T09:23:18;18.10;99.90
18868;DHT22;9563;49.240;9.088;2023-04-30T09:25:45;17.90;99.90
18868;DHT22;9563;49.240;9.088;2023-04-30T09:28:13;17.70;99.90
18868;DHT22;9563;49.240;9.088;2023-04-30T09:30:41;17.60;99.90
18868;DHT22;9563;49.240;9.088;2023-04-30T09:33:09;17.80;99.90
18868;DHT22;9563;49.240;9.088;2023-04-30T09:35:38;18.00;99.90
18868;DHT22;9563;49.240;9.088;2023-04-30T09:38:06;18.00;99.90
18868;DHT22;9563;49.240;9.088;2023-04-30T09:40:34;17.90;99.90
18868;DHT22;9563;49.240;9.088;2023-04-30T09:43:02;17.80;99.90
18868;DHT22;9563;49.240;9.088;2023-04-30T09:45:39;18.00;99.90
18868;DHT22;9563;49.240;9.088;2023-04-30T09:48:09;18.80;99.90
18868;DHT22;9563;49.240;9.088;2023-04-30T09:50:37;19.00;99.90
18868;DHT22;9563;49.240;9.088;2023-04-30T09:53:05;18.90;99.90
18868;DHT22;9563;49.240;9.088;2023-04-30T09:55:34;18.60;99.90
18868;DHT22;9563;49.240;9.088;2023-04-30T09:58:04;18.40;99.60
18868;DHT22;9563;49.240;9.088;2023-04-30T10:00:32;18.40;99.90
18868;DHT22;9563;49.240;9.088;2023-04-30T10:03:03;18.30;99.90
18868;DHT22;9563;49.240;9.088;2023-04-30T10:05:35;18.20;99.90
18868;DHT22;9563;49.240;9.088;2023-04-30T10:08:04;18.00;99.90
18868;DHT22;9563;49.240;9.088;2023-04-30T10:10:32;17.80;99.90
18868;DHT22;9563;49.240;9.088;2023-04-30T10:13:03;17.60;99.90
18868;DHT22;9563;49.240;9.088;2023-04-30T10:15:36;17.40;99.90
18868;DHT22;9563;49.240;9.088;2023-04-30T10:18:06;17.50;99.90
18868;DHT22;9563;49.240;9.088;2023-04-30T10:20:37;17.70;99.90
18868;DHT22;9563;49.240;9.088;2023-04-30T10:23:04;17.70;99.90
18868;DHT22;9563;49.240;9.088;2023-04-30T10:25:33;17.80;99.90
18868;DHT22;9563;49.240;9.088;2023-04-30T10:27:59;17.80;99.90
18868;DHT22;9563;49.240;9.088;2023-04-30T10:30:26;17.70;99.90
18868;DHT22;9563;49.240;9.088;2023-04-30T10:33:00;17.80;99.90
18868;DHT22;9563;49.240;9.088;2023-04-30T10:35:38;17.90;99.90
18868;DHT22;9563;49.240;9.088;2023-04-30T10:38:14;17.90;99.90
18868;DHT22;9563;49.240;9.088;2023-04-30T10:40:45;18.00;99.90
18868;DHT22;9563;49.240;9.088;2023-04-30T10:43:12;17.90;99.90
18868;DHT22;9563;49.240;9.088;2023-04-30T10:45:42;17.90;99.90
18868;DHT22;9563;49.240;9.088;2023-04-30T10:48:09;17.70;99.90
18868;DHT22;9563;49.240;9.088;2023-04-30T10:50:41;17.50;99.90
18868;DHT22;9563;49.240;9.088;2023-04-30T10:53:12;17.30;99.90
18868;DHT22;9563;49.240;9.088;2023-04-30T10:55:45;17.20;99.90
18868;DHT22;9563;49.240;9.088;2023-04-30T10:58:25;17.20;99.90
18868;DHT22;9563;49.240;9.088;2023-04-30T11:00:59;17.00;99.90
18868;DHT22;9563;49.240;9.088;2023-04-30T11:03:28;16.90;99.90
18868;DHT22;9563;49.240;9.088;2023-04-30T11:05:57;16.90;99.90
18868;DHT22;9563;49.240;9.088;2023-04-30T11:08:34;16.90;99.90
18868;DHT22;9563;49.240;9.088;2023-04-30T11:11:02;16.90;99.90
18868;DHT22;9563;49.240;9.088;2023-04-30T11:13:38;16.90;99.90
18868;DHT22;9563;49.240;9.088;2023-04-30T11:16:06;16.80;99.90
18868;DHT22;9563;49.240;9.088;2023-04-30T11:18:33;16.80;99.90
18868;DHT22;9563;49.240;9.088;2023-04-30T11:21:02;16.70;99.90
18868;DHT22;9563;49.240;9.088;2023-04-30T11:23:32;16.80;99.90
18868;DHT22;9563;49.240;9.088;2023-04-30T11:26:00;16.80;99.90
18868;DHT22;9563;49.240;9.088;2023-04-30T11:28:28;16.80;99.90
18868;DHT22;9563;49.240;9.088;2023-04-30T11:30:56;16.80;99.90
18868;DHT22;9563;49.240;9.088;2023-04-30T11:33:24;16.80;99.90
18868;DHT22;9563;49.240;9.088;2023-04-30T11:35:52;16.80;99.90
18868;DHT22;9563;49.240;9.088;2023-04-30T11:38:25;16.90;99.90
18868;DHT22;9563;49.240;9.088;2023-04-30T11:40:52;16.90;99.90
18868;DHT22;9563;49.240;9.088;2023-04-30T11:43:21;17.10;99.90
18868;DHT22;9563;49.240;9.088;2023-04-30T11:48:32;17.50;99.90
18868;DHT22;9563;49.240;9.088;2023-04-30T11:51:02;17.50;99.90
18868;DHT22;9563;49.240;9.088;2023-04-30T11:53:32;17.60;99.90
18868;DHT22;9563;49.240;9.088;2023-04-30T11:56:03;17.50;99.90
18868;DHT22;9563;49.240;9.088;2023-04-30T11:58:34;17.40;99.90
18868;DHT22;9563;49.240;9.088;2023-04-30T12:01:02;17.40;99.90
18868;DHT22;9563;49.240;9.088;2023-04-30T12:03:31;17.40;99.90
18868;DHT22;9563;49.240;9.088;2023-04-30T12:05:58;17.40;99.90
18868;DHT22;9563;49.240;9.088;2023-04-30T12:08:26;17.40;99.70
18868;DHT22;9563;49.240;9.088;2023-04-30T12:10:54;17.40;99.90
18868;DHT22;9563;49.240;9.088;2023-04-30T12:13:21;17.50;99.90
18868;DHT22;9563;49.240;9.088;2023-04-30T12:15:58;17.80;99.90
18868;DHT22;9563;49.240;9.088;2023-04-30T12:18:25;18.00;99.90
18868;DHT22;9563;49.240;9.088;2023-04-30T12:20:52;18.20;98.70
18868;DHT22;9563;49.240;9.088;2023-04-30T12:23:19;18.60;99.70
18868;DHT22;9563;49.240;9.088;2023-04-30T12:25:46;19.00;97.80
18868;DHT22;9563;49.240;9.088;2023-04-30T12:28:15;19.10;95.70
18868;DHT22;9563;49.240;9.088;2023-04-30T12:30:42;19.30;98.20
18868;DHT22;9563;49.240;9.088;2023-04-30T12:33:10;19.20;95.60
18868;DHT22;9563;49.240;9.088;2023-04-30T12:35:41;19.30;96.60
18868;DHT22;9563;49.240;9.088;2023-04-30T12:38:08;19.20;95.30
18868;DHT22;9563;49.240;9.088;2023-04-30T12:40:35;19.30;97.10
18868;DHT22;9563;49.240;9.088;2023-04-30T12:43:05;19.60;96.10
18868;DHT22;9563;49.240;9.088;2023-04-30T12:45:48;19.60;97.00
18868;DHT22;9563;49.240;9.088;2023-04-30T12:48:17;19.40;94.80
18868;DHT22;9563;49.240;9.088;2023-04-30T12:50:53;19.10;94.70
18868;DHT22;9563;49.240;9.088;2023-04-30T12:53:21;19.10;95.20
18868;DHT22;9563;49.240;9.088;2023-04-30T12:56:10;19.00;96.10
18868;DHT22;9563;49.240;9.088;2023-04-30T12:58:40;18.90;95.90
18868;DHT22;9563;49.240;9.088;2023-04-30T13:01:12;19.20;97.70
18868;DHT22;9563;49.240;9.088;2023-04-30T13:03:39;19.50;94.40
18868;DHT22;9563;49.240;9.088;2023-04-30T13:06:06;19.80;96.20
18868;DHT22;9563;49.240;9.088;2023-04-30T13:08:34;20.10;93.40
18868;DHT22;9563;49.240;9.088;2023-04-30T13:11:01;20.20;91.80
18868;DHT22;9563;49.240;9.088;2023-04-30T13:13:29;20.20;88.10
18868;DHT22;9563;49.240;9.088;2023-04-30T13:15:56;20.40;90.40
18868;DHT22;9563;49.240;9.088;2023-04-30T13:18:25;20.50;89.10
18868;DHT22;9563;49.240;9.088;2023-04-30T13:20:51;20.50;84.90
18868;DHT22;9563;49.240;9.088;2023-04-30T13:23:18;20.30;88.00
18868;DHT22;9563;49.240;9.088;2023-04-30T13:25:45;20.00;90.10
18868;DHT22;9563;49.240;9.088;2023-04-30T13:28:12;19.70;88.10
18868;DHT22;9563;49.240;9.088;2023-04-30T13:30:39;19.60;91.90
18868;DHT22;9563;49.240;9.088;2023-04-30T13:33:06;19.70;91.40
18868;DHT22;9563;49.240;9.088;2023-04-30T13:35:34;19.80;90.20
18868;DHT22;9563;49.240;9.088;2023-04-30T13:38:01;19.90;92.20
18868;DHT22;9563;49.240;9.088;2023-04-30T13:40:28;19.90;90.20
18868;DHT22;9563;49.240;9.088;2023-04-30T13:42:55;19.70;90.60
18868;DHT22;9563;49.240;9.088;2023-04-30T13:45:21;19.90;90.10
18868;DHT22;9563;49.240;9.088;2023-04-30T13:47:48;19.90;91.40
18868;DHT22;9563;49.240;9.088;2023-04-30T13:50:15;20.00;93.00
18868;DHT22;9563;49.240;9.088;2023-04-30T13:52:43;20.20;93.00
18868;DHT22;9563;49.240;9.088;2023-04-30T13:55:10;20.50;91.20
18868;DHT22;9563;49.240;9.088;2023-04-30T13:57:38;20.60;91.90
18868;DHT22;9563;49.240;9.088;2023-04-30T14:00:06;20.50;88.30
18868;DHT22;9563;49.240;9.088;2023-04-30T14:02:33;20.60;93.10
18868;DHT22;9563;49.240;9.088;2023-04-30T14:05:01;20.70;91.10
18868;DHT22;9563;49.240;9.088;2023-04-30T14:07:29;20.80;91.60
18868;DHT22;9563;49.240;9.088;2023-04-30T14:09:58;20.80;90.80
18868;DHT22;9563;49.240;9.088;2023-04-30T14:12:25;20.90;91.00
18868;DHT22;9563;49.240;9.088;2023-04-30T14:14:54;20.90;90.90
18868;DHT22;9563;49.240;9.088;2023-04-30T14:17:23;20.70;91.70
18868;DHT22;9563;49.240;9.088;2023-04-30T14:19:51;20.60;88.20
18868;DHT22;9563;49.240;9.088;2023-04-30T14:22:18;20.60;90.70
18868;DHT22;9563;49.240;9.088;2023-04-30T14:24:44;20.70;90.40
18868;DHT22;9563;49.240;9.088;2023-04-30T14:27:13;20.70;89.90
18868;DHT22;9563;49.240;9.088;2023-04-30T14:29:40;20.70;90.00
18868;DHT22;9563;49.240;9.088;2023-04-30T14:32:06;20.60;90.70
18868;DHT22;9563;49.240;9.088;2023-04-30T14:34:33;20.60;91.00
18868;DHT22;9563;49.240;9.088;2023-04-30T14:37:01;20.50;89.90
18868;DHT22;9563;49.240;9.088;2023-04-30T14:39:28;20.60;90.90
18868;DHT22;9563;49.240;9.088;2023-04-30T14:41:55;20.70;89.70
18868;DHT22;9563;49.240;9.088;2023-04-30T14:44:23;20.80;90.60
18868;DHT22;9563;49.240;9.088;2023-04-30T14:46:51;21.00;91.40
18868;DHT22;9563;49.240;9.088;2023-04-30T14:49:17;21.10;87.90
18868;DHT22;9563;49.240;9.088;2023-04-30T14:51:44;21.10;84.40
18868;DHT22;9563;49.240;9.088;2023-04-30T14:54:11;21.20;83.20
18868;DHT22;9563;49.240;9.088;2023-04-30T14:56:38;21.20;85.20
18868;DHT22;9563;49.240;9.088;2023-04-30T14:59:05;21.00;83.00
18868;DHT22;9563;49.240;9.088;2023-04-30T15:01:33;20.70;80.60
18868;DHT22;9563;49.240;9.088;2023-04-30T15:04:00;20.60;83.10
18868;DHT22;9563;49.240;9.088;2023-04-30T15:06:28;20.60;86.90
18868;DHT22;9563;49.240;9.088;2023-04-30T15:08:55;20.40;86.30
18868;DHT22;9563;49.240;9.088;2023-04-30T15:11:22;20.40;85.80
18868;DHT22;9563;49.240;9.088;2023-04-30T15:13:49;20.50;87.00
18868;DHT22;9563;49.240;9.088;2023-04-30T15:16:16;20.50;87.50
18868;DHT22;9563;49.240;9.088;2023-04-30T15:18:45;20.40;84.40
18868;DHT22;9563;49.240;9.088;2023-04-30T15:21:13;20.40;87.00
18868;DHT22;9563;49.240;9.088;2023-04-30T15:23:40;20.40;85.20
18868;DHT22;9563;49.240;9.088;2023-04-30T15:26:07;20.30;85.80
18868;DHT22;9563;49.240;9.088;2023-04-30T15:28:33;20.20;85.10
18868;DHT22;9563;49.240;9.088;2023-04-30T15:31:00;20.20;89.30
18868;DHT22;9563;49.240;9.088;2023-04-30T15:33:30;20.20;89.00
18868;DHT22;9563;49.240;9.088;2023-04-30T15:36:00;20.20;91.60
18868;DHT22;9563;49.240;9.088;2023-04-30T15:38:27;20.20;85.50
18868;DHT22;9563;49.240;9.088;2023-04-30T15:40:53;20.10;85.60
18868;DHT22;9563;49.240;9.088;2023-04-30T15:43:20;20.00;89.00
18868;DHT22;9563;49.240;9.088;2023-04-30T15:45:48;20.00;87.00
18868;DHT22;9563;49.240;9.088;2023-04-30T15:48:15;20.10;86.10
18868;DHT22;9563;49.240;9.088;2023-04-30T15:50:42;20.10;84.10
18868;DHT22;9563;49.240;9.088;2023-04-30T15:53:10;20.00;82.90
18868;DHT22;9563;49.240;9.088;2023-04-30T15:55:37;20.00;84.00
18868;DHT22;9563;49.240;9.088;2023-04-30T15:58:04;19.90;84.40
18868;DHT22;9563;49.240;9.088;2023-04-30T16:00:31;19.90;84.70
18868;DHT22;9563;49.240;9.088;2023-04-30T16:02:58;19.90;85.10
18868;DHT22;9563;49.240;9.088;2023-04-30T16:05:26;19.80;85.30
18868;DHT22;9563;49.240;9.088;2023-04-30T16:07:53;19.70;87.70
18868;DHT22;9563;49.240;9.088;2023-04-30T16:10:21;19.60;87.40
18868;DHT22;9563;49.240;9.088;2023-04-30T16:12:48;19.40;88.70
18868;DHT22;9563;49.240;9.088;2023-04-30T16:15:15;19.30;91.80
18868;DHT22;9563;49.240;9.088;2023-04-30T16:17:42;19.20;90.40
18868;DHT22;9563;49.240;9.088;2023-04-30T16:20:10;19.10;90.70
18868;DHT22;9563;49.240;9.088;2023-04-30T16:22:37;19.00;92.50
18868;DHT22;9563;49.240;9.088;2023-04-30T16:25:05;18.90;92.40
18868;DHT22;9563;49.240;9.088;2023-04-30T16:27:35;18.80;91.00
18868;DHT22;9563;49.240;9.088;2023-04-30T16:30:03;18.80;91.80
18868;DHT22;9563;49.240;9.088;2023-04-30T16:32:30;18.70;91.90
18868;DHT22;9563;49.240;9.088;2023-04-30T16:34:57;18.70;90.90
18868;DHT22;9563;49.240;9.088;2023-04-30T16:37:24;18.70;91.90
18868;DHT22;9563;49.240;9.088;2023-04-30T16:39:51;18.60;91.40
18868;DHT22;9563;49.240;9.088;2023-04-30T16:42:17;18.60;92.40
18868;DHT22;9563;49.240;9.088;2023-04-30T16:44:46;18.60;91.80
18868;DHT22;9563;49.240;9.088;2023-04-30T16:47:13;18.60;92.40
18868;DHT22;9563;49.240;9.088;2023-04-30T16:49:41;18.50;91.70
18868;DHT22;9563;49.240;9.088;2023-04-30T16:52:08;18.50;92.60
18868;DHT22;9563;49.240;9.088;2023-04-30T16:54:35;18.40;93.60
18868;DHT22;9563;49.240;9.088;2023-04-30T16:57:02;18.30;94.80
18868;DHT22;9563;49.240;9.088;2023-04-30T16:59:29;18.30;95.40
18868;DHT22;9563;49.240;9.088;2023-04-30T17:01:58;18.20;94.50
18868;DHT22;9563;49.240;9.088;2023-04-30T17:04:27;18.20;95.50
18868;DHT22;9563;49.240;9.088;2023-04-30T17:06:53;18.20;96.90
18868;DHT22;9563;49.240;9.088;2023-04-30T17:09:21;18.20;95.50
18868;DHT22;9563;49.240;9.088;2023-04-30T17:11:48;18.10;97.10
18868;DHT22;9563;49.240;9.088;2023-04-30T17:14:15;18.00;96.30
18868;DHT22;9563;49.240;9.088;2023-04-30T17:16:42;18.00;96.80
18868;DHT22;9563;49.240;9.088;2023-04-30T17:19:10;17.90;96.80
18868;DHT22;9563;49.240;9.088;2023-04-30T17:21:37;17.80;97.70
18868;DHT22;9563;49.240;9.088;2023-04-30T17:24:04;17.80;97.90
18868;DHT22;9563;49.240;9.088;2023-04-30T17:26:32;17.70;98.40
18868;DHT22;9563;49.240;9.088;2023-04-30T17:28:59;17.70;99.00
18868;DHT22;9563;49.240;9.088;2023-04-30T17:31:29;17.60;98.60
18868;DHT22;9563;49.240;9.088;2023-04-30T17:33:55;17.60;99.20
18868;DHT22;9563;49.240;9.088;2023-04-30T17:36:25;17.60;98.90
18868;DHT22;9563;49.240;9.088;2023-04-30T17:38:53;17.50;99.90
18868;DHT22;9563;49.240;9.088;2023-04-30T17:41:20;17.50;99.90
18868;DHT22;9563;49.240;9.088;2023-04-30T17:43:48;17.50;99.90
18868;DHT22;9563;49.240;9.088;2023-04-30T17:46:16;17.40;99.90
18868;DHT22;9563;49.240;9.088;2023-04-30T17:48:43;17.30;99.90
18868;DHT22;9563;49.240;9.088;2023-04-30T17:51:10;17.30;99.90
18868;DHT22;9563;49.240;9.088;2023-04-30T17:53:38;17.20;99.90
18868;DHT22;9563;49.240;9.088;2023-04-30T17:56:05;17.20;99.90
18868;DHT22;9563;49.240;9.088;2023-04-30T17:58:33;17.10;99.90
18868;DHT22;9563;49.240;9.088;2023-04-30T18:01:00;17.10;99.90
18868;DHT22;9563;49.240;9.088;2023-04-30T18:03:28;16.90;99.90
18868;DHT22;9563;49.240;9.088;2023-04-30T18:05:55;16.90;99.90
18868;DHT22;9563;49.240;9.088;2023-04-30T18:08:22;16.80;99.90
18868;DHT22;9563;49.240;9.088;2023-04-30T18:10:50;16.70;99.90
18868;DHT22;9563;49.240;9.088;2023-04-30T18:13:18;16.60;99.90
18868;DHT22;9563;49.240;9.088;2023-04-30T18:15:45;16.50;99.90
18868;DHT22;9563;49.240;9.088;2023-04-30T18:18:12;16.40;99.90
18868;DHT22;9563;49.240;9.088;2023-04-30T18:20:39;16.40;99.90
18868;DHT22;9563;49.240;9.088;2023-04-30T18:23:06;16.30;99.90
18868;DHT22;9563;49.240;9.088;2023-04-30T18:25:34;16.20;99.90
18868;DHT22;9563;49.240;9.088;2023-04-30T18:28:03;16.10;99.90
18868;DHT22;9563;49.240;9.088;2023-04-30T18:30:30;16.00;99.90
18868;DHT22;9563;49.240;9.088;2023-04-30T18:32:59;15.90;99.90
18868;DHT22;9563;49.240;9.088;2023-04-30T18:35:26;15.90;99.90
18868;DHT22;9563;49.240;9.088;2023-04-30T18:37:53;15.80;99.90
18868;DHT22;9563;49.240;9.088;2023-04-30T18:40:20;15.60;99.90
18868;DHT22;9563;49.240;9.088;2023-04-30T18:42:47;15.60;99.90
18868;DHT22;9563;49.240;9.088;2023-04-30T18:45:15;15.50;99.90
18868;DHT22;9563;49.240;9.088;2023-04-30T18:47:42;15.30;99.90
18868;DHT22;9563;49.240;9.088;2023-04-30T18:50:10;15.00;99.90
18868;DHT22;9563;49.240;9.088;2023-04-30T18:52:41;14.90;99.90
18868;DHT22;9563;49.240;9.088;2023-04-30T18:55:09;14.90;99.90
18868;DHT22;9563;49.240;9.088;2023-04-30T18:57:38;14.80;99.90
18868;DHT22;9563;49.240;9.088;2023-04-30T19:00:06;14.70;99.90
18868;DHT22;9563;49.240;9.088;2023-04-30T19:02:35;14.70;99.90
18868;DHT22;9563;49.240;9.088;2023-04-30T19:05:02;14.60;99.90
18868;DHT22;9563;49.240;9.088;2023-04-30T19:07:29;14.60;99.90
18868;DHT22;9563;49.240;9.088;2023-04-30T19:09:57;14.60;99.90
18868;DHT22;9563;49.240;9.088;2023-04-30T19:12:24;14.50;99.90
18868;DHT22;9563;49.240;9.088;2023-04-30T19:14:50;14.40;99.90
18868;DHT22;9563;49.240;9.088;2023-04-30T19:17:17;14.20;99.90
18868;DHT22;9563;49.240;9.088;2023-04-30T19:19:46;14.00;99.90
18868;DHT22;9563;49.240;9.088;2023-04-30T19:22:13;13.80;99.90
18868;DHT22;9563;49.240;9.088;2023-04-30T19:24:40;13.60;99.90
18868;DHT22;9563;49.240;9.088;2023-04-30T19:27:08;13.50;99.90
18868;DHT22;9563;49.240;9.088;2023-04-30T19:29:35;13.40;99.90
18868;DHT22;9563;49.240;9.088;2023-04-30T19:32:04;13.40;99.90
18868;DHT22;9563;49.240;9.088;2023-04-30T19:34:31;13.50;99.90
18868;DHT22;9563;49.240;9.088;2023-04-30T19:37:00;13.50;99.90
18868;DHT22;9563;49.240;9.088;2023-04-30T19:39:28;13.50;99.90
18868;DHT22;9563;49.240;9.088;2023-04-30T19:41:58;13.60;99.90
18868;DHT22;9563;49.240;9.088;2023-04-30T19:44:26;13.40;99.90
18868;DHT22;9563;49.240;9.088;2023-04-30T19:46:53;13.30;99.90
18868;DHT22;9563;49.240;9.088;2023-04-30T19:49:21;13.10;99.90
18868;DHT22;9563;49.240;9.088;2023-04-30T19:51:48;13.00;99.90
18868;DHT22;9563;49.240;9.088;2023-04-30T19:54:16;12.80;99.90
18868;DHT22;9563;49.240;9.088;2023-04-30T19:56:43;12.80;99.90
18868;DHT22;9563;49.240;9.088;2023-04-30T19:59:10;12.70;99.90
18868;DHT22;9563;49.240;9.088;2023-04-30T20:01:38;12.60;99.90
18868;DHT22;9563;49.240;9.088;2023-04-30T20:04:06;12.70;99.90
18868;DHT22;9563;49.240;9.088;2023-04-30T20:06:33;12.70;99.90
18868;DHT22;9563;49.240;9.088;2023-04-30T20:09:00;12.80;99.90
18868;DHT22;9563;49.240;9.088;2023-04-30T20:11:28;12.80;99.90
18868;DHT22;9563;49.240;9.088;2023-04-30T20:13:57;12.80;99.90
18868;DHT22;9563;49.240;9.088;2023-04-30T20:16:24;12.80;99.90
18868;DHT22;9563;49.240;9.088;2023-04-30T20:18:51;12.80;99.90
18868;DHT22;9563;49.240;9.088;2023-04-30T20:21:18;12.70;99.90
18868;DHT22;9563;49.240;9.088;2023-04-30T20:23:45;12.70;99.90
18868;DHT22;9563;49.240;9.088;2023-04-30T20:26:13;12.70;99.90
18868;DHT22;9563;49.240;9.088;2023-04-30T20:28:41;12.60;99.90
18868;DHT22;9563;49.240;9.088;2023-04-30T20:31:08;12.40;99.90
18868;DHT22;9563;49.240;9.088;2023-04-30T20:33:35;12.30;99.90
18868;DHT22;9563;49.240;9.088;2023-04-30T20:36:02;12.20;99.90
18868;DHT22;9563;49.240;9.088;2023-04-30T20:38:29;12.10;99.90
18868;DHT22;9563;49.240;9.088;2023-04-30T20:40:57;12.00;99.90
18868;DHT22;9563;49.240;9.088;2023-04-30T20:43:24;12.00;99.90
18868;DHT22;9563;49.240;9.088;2023-04-30T20:45:54;12.10;99.90
18868;DHT22;9563;49.240;9.088;2023-04-30T20:48:23;12.00;99.90
18868;DHT22;9563;49.240;9.088;2023-04-30T20:50:50;12.00;99.90
18868;DHT22;9563;49.240;9.088;2023-04-30T20:53:16;12.10;99.90